createdAt,value
2023-03-15T00:01:08.263Z,76.81
2023-03-15T00:03:37.584Z,76.86
2023-03-15T00:06:07.540Z,76.64
2023-03-15T00:08:35.537Z,76.92
2023-03-15T00:11:03.656Z,76.78
2023-03-15T00:13:32.724Z,76.75
2023-03-15T00:16:04.114Z,76.91
2023-03-15T00:18:32.563Z,76.69
2023-03-15T00:21:00.627Z,76.76
2023-03-15T00:23:31.625Z,76.99
2023-03-15T00:25:59.431Z,76.66
2023-03-15T00:28:27.428Z,76.91
2023-03-15T00:31:04.967Z,77.17
2023-03-15T00:33:34.952Z,77.23
2023-03-15T00:36:05.539Z,76.95
2023-03-15T00:38:35.586Z,77.05
2023-03-15T00:41:07.715Z,76.96
2023-03-15T00:43:36.052Z,76.99
2023-03-15T00:46:04.401Z,76.93
2023-03-15T00:48:32.794Z,77.07
2023-03-15T00:51:05.771Z,76.97
2023-03-15T00:53:36.176Z,77.13
2023-03-15T00:56:07.704Z,76.99
2023-03-15T00:58:35.676Z,76.95
2023-03-15T01:01:07.169Z,77.31
2023-03-15T01:03:36.839Z,77.18
2023-03-15T01:06:10.169Z,77.09
2023-03-15T01:08:39.631Z,77.13
2023-03-15T01:11:09.790Z,77.39
2023-03-15T01:13:37.998Z,77.30
2023-03-15T01:16:07.385Z,77.32
2023-03-15T01:18:35.340Z,77.06
2023-03-15T01:21:03.191Z,77.20
2023-03-15T01:23:31.004Z,77.14
2023-03-15T01:26:02.707Z,77.10
2023-03-15T01:28:30.813Z,77.28
2023-03-15T01:30:59.959Z,77.31
2023-03-15T01:33:28.477Z,77.14
2023-03-15T01:36:00.981Z,77.25
2023-03-15T01:38:29.132Z,77.43
2023-03-15T01:40:57.014Z,77.16
2023-03-15T01:43:27.932Z,77.47
2023-03-15T01:46:08.394Z,77.37
2023-03-15T01:48:44.518Z,77.33
2023-03-15T01:51:19.846Z,77.28
2023-03-15T01:53:52.996Z,77.35
2023-03-15T01:56:21.483Z,77.39
2023-03-15T01:58:54.934Z,77.54
2023-03-15T02:01:23.057Z,77.44
2023-03-15T02:03:55.369Z,77.40
2023-03-15T02:06:24.204Z,77.51
2023-03-15T02:08:55.954Z,77.57
2023-03-15T02:11:26.917Z,77.76
2023-03-15T02:13:57.896Z,77.50
2023-03-15T02:16:26.477Z,77.78
2023-03-15T02:18:54.343Z,77.59
2023-03-15T02:21:34.184Z,77.53
2023-03-15T02:24:12.311Z,77.66
2023-03-15T02:26:46.110Z,77.77
2023-03-15T02:29:15.964Z,77.74
2023-03-15T02:31:46.710Z,77.49
2023-03-15T02:34:14.584Z,77.71
2023-03-15T02:36:42.405Z,77.64
2023-03-15T02:39:18.097Z,77.70
2023-03-15T02:41:50.632Z,77.73
2023-03-15T02:44:24.334Z,77.71
2023-03-15T02:46:54.746Z,77.70
2023-03-15T02:49:25.908Z,77.84
2023-03-15T02:51:53.784Z,77.75
2023-03-15T02:54:21.778Z,77.83
2023-03-15T02:56:49.567Z,77.81
2023-03-15T02:59:17.436Z,77.75
2023-03-15T03:01:46.869Z,77.66
2023-03-15T03:04:14.690Z,77.79
2023-03-15T03:06:44.114Z,77.84
2023-03-15T03:09:12.460Z,77.70
2023-03-15T03:11:40.325Z,77.87
2023-03-15T03:14:08.096Z,77.80
2023-03-15T03:16:36.996Z,77.80
2023-03-15T03:19:06.197Z,78.00
2023-03-15T03:21:33.981Z,77.70
2023-03-15T03:24:01.804Z,77.89
2023-03-15T03:26:32.714Z,77.91
2023-03-15T03:29:00.506Z,77.92
2023-03-15T03:31:29.120Z,77.67
2023-03-15T03:33:57.645Z,77.91
2023-03-15T03:36:27.202Z,77.97
2023-03-15T03:38:55.270Z,77.92
2023-03-15T03:41:23.115Z,78.46
2023-03-15T03:43:50.991Z,78.00
2023-03-15T03:46:18.966Z,78.10
2023-03-15T03:48:46.970Z,78.03
2023-03-15T03:51:14.768Z,78.21
2023-03-15T03:53:43.856Z,78.09
2023-03-15T03:56:11.621Z,78.13
2023-03-15T03:58:39.486Z,78.20
2023-03-15T04:01:07.293Z,78.19
2023-03-15T04:03:35.100Z,78.25
2023-03-15T04:06:05.667Z,78.32
2023-03-15T04:08:33.595Z,78.51
2023-03-15T04:11:04.241Z,78.33
2023-03-15T04:13:32.257Z,78.24
2023-03-15T04:16:01.454Z,78.24
2023-03-15T04:18:29.703Z,78.22
2023-03-15T04:20:59.490Z,78.16
2023-03-15T04:23:27.258Z,78.35
2023-03-15T04:25:55.736Z,78.25
2023-03-15T04:28:25.041Z,78.20
2023-03-15T04:30:58.672Z,78.21
2023-03-15T04:33:26.779Z,78.24
2023-03-15T04:35:55.099Z,78.32
2023-03-15T04:38:26.638Z,78.70
2023-03-15T04:40:55.488Z,78.50
2023-03-15T04:43:24.750Z,78.38
2023-03-15T04:45:53.007Z,78.32
2023-03-15T04:48:20.841Z,78.40
2023-03-15T04:50:48.678Z,78.33
2023-03-15T04:53:16.567Z,78.08
2023-03-15T04:55:44.629Z,78.47
2023-03-15T04:58:12.425Z,78.46
2023-03-15T05:00:41.724Z,78.62
2023-03-15T05:03:09.577Z,78.34
2023-03-15T05:05:37.357Z,78.53
2023-03-15T05:08:05.573Z,78.43
2023-03-15T05:10:33.335Z,78.43
2023-03-15T05:13:01.202Z,78.49
2023-03-15T05:15:29.072Z,78.40
2023-03-15T05:17:58.348Z,78.57
2023-03-15T05:20:26.227Z,78.51
2023-03-15T05:22:54.337Z,78.71
2023-03-15T05:25:22.865Z,78.62
2023-03-15T05:27:50.616Z,78.72
2023-03-15T05:30:18.579Z,78.56
2023-03-15T05:32:46.456Z,78.56
2023-03-15T05:35:15.765Z,78.62
2023-03-15T05:37:43.610Z,78.51
2023-03-15T05:40:12.666Z,78.81
2023-03-15T05:42:40.441Z,78.60
2023-03-15T05:45:09.422Z,78.75
2023-03-15T05:47:37.423Z,78.67
2023-03-15T05:50:06.055Z,78.74
2023-03-15T05:52:35.222Z,78.85
2023-03-15T05:55:02.963Z,78.77
2023-03-15T05:57:31.436Z,78.91
2023-03-15T05:59:59.271Z,78.95
2023-03-15T06:02:27.122Z,78.78
2023-03-15T06:04:55.073Z,79.11
2023-03-15T06:07:23.236Z,79.19
2023-03-15T06:09:52.465Z,78.79
2023-03-15T06:12:20.638Z,78.87
2023-03-15T06:14:48.454Z,79.43
2023-03-15T06:17:16.303Z,79.17
2023-03-15T06:19:44.090Z,78.81
2023-03-15T06:22:12.360Z,79.37
2023-03-15T06:24:40.130Z,79.22
2023-03-15T06:27:09.553Z,79.00
2023-03-15T06:29:37.422Z,79.16
2023-03-15T06:32:05.771Z,79.17
2023-03-15T06:34:33.498Z,79.28
2023-03-15T06:37:01.478Z,79.31
2023-03-15T06:39:29.289Z,79.36
2023-03-15T06:41:58.505Z,79.38
2023-03-15T06:44:27.684Z,78.98
2023-03-15T06:46:55.520Z,79.52
2023-03-15T06:49:23.254Z,79.11
2023-03-15T06:51:51.213Z,79.47
2023-03-15T06:54:19.040Z,79.02
2023-03-15T06:56:46.759Z,79.01
2023-03-15T06:59:14.578Z,79.64
2023-03-15T07:01:43.748Z,79.23
2023-03-15T07:04:11.756Z,79.47
2023-03-15T07:06:39.567Z,79.66
2023-03-15T07:09:07.332Z,79.53
2023-03-15T07:11:35.236Z,79.41
2023-03-15T07:14:03.150Z,79.42
2023-03-15T07:16:30.875Z,79.77
2023-03-15T07:19:00.287Z,79.66
2023-03-15T07:21:29.066Z,79.55
2023-03-15T07:23:56.906Z,79.68
2023-03-15T07:26:24.708Z,79.44
2023-03-15T07:28:52.504Z,79.73
2023-03-15T07:31:20.224Z,79.67
2023-03-15T07:33:48.045Z,79.82
2023-03-15T07:36:17.247Z,79.54
2023-03-15T07:38:45.030Z,79.39
2023-03-15T07:41:12.783Z,79.51
2023-03-15T07:43:40.662Z,79.80
2023-03-15T07:46:08.707Z,79.79
2023-03-15T07:48:36.525Z,79.88
2023-03-15T07:51:04.671Z,79.57
2023-03-15T07:53:33.872Z,79.63
2023-03-15T07:56:02.018Z,80.25
2023-03-15T07:58:29.820Z,80.02
2023-03-15T08:00:57.988Z,79.83
2023-03-15T08:03:26.938Z,79.78
2023-03-15T08:05:57.676Z,79.80
2023-03-15T08:08:26.245Z,79.52
2023-03-15T08:10:55.944Z,79.98
2023-03-15T08:13:24.326Z,79.67
2023-03-15T08:15:52.453Z,79.74
2023-03-15T08:18:20.328Z,79.82
2023-03-15T08:20:48.097Z,79.55
2023-03-15T08:23:16.753Z,79.49
2023-03-15T08:25:45.184Z,79.40
2023-03-15T08:28:14.533Z,80.03
2023-03-15T08:30:42.320Z,79.60
2023-03-15T08:33:10.445Z,80.00
2023-03-15T08:35:38.332Z,79.84
2023-03-15T08:38:06.255Z,79.80
2023-03-15T08:40:34.059Z,79.68
2023-03-15T08:43:01.887Z,79.97
2023-03-15T08:45:33.017Z,79.65
2023-03-15T08:48:01.571Z,79.95
2023-03-15T08:50:31.740Z,79.62
2023-03-15T08:52:59.635Z,80.05
2023-03-15T08:55:27.406Z,79.53
2023-03-15T08:57:55.165Z,79.62
2023-03-15T09:00:23.641Z,79.63
2023-03-15T09:02:53.375Z,79.86
2023-03-15T09:05:22.307Z,79.47
2023-03-15T09:07:50.153Z,79.84
2023-03-15T09:10:19.044Z,79.60
2023-03-15T09:12:49.001Z,79.23
2023-03-15T09:15:17.286Z,79.45
2023-03-15T09:17:45.809Z,79.81
2023-03-15T09:20:18.857Z,79.46
2023-03-15T09:22:53.470Z,79.64
2023-03-15T09:25:22.089Z,79.33
2023-03-15T09:27:50.164Z,79.11
2023-03-15T09:30:18.890Z,79.22
2023-03-15T09:32:46.897Z,79.34
2023-03-15T09:35:18.461Z,79.40
2023-03-15T09:37:46.744Z,79.50
2023-03-15T09:40:19.828Z,79.63
2023-03-15T09:43:00.361Z,79.50
2023-03-15T09:45:36.344Z,79.11
2023-03-15T09:48:10.098Z,79.17
2023-03-15T09:50:45.714Z,79.11
2023-03-15T09:53:18.781Z,79.32
2023-03-15T09:55:48.590Z,79.10
2023-03-15T09:58:20.624Z,78.97
2023-03-15T10:00:52.309Z,78.98
2023-03-15T10:03:24.202Z,78.75
2023-03-15T10:05:57.983Z,78.92
2023-03-15T10:08:26.717Z,79.15
2023-03-15T10:10:57.917Z,79.04
2023-03-15T10:13:51.396Z,78.88
2023-03-15T10:16:30.060Z,78.95
2023-03-15T10:19:07.877Z,78.43
2023-03-15T10:21:47.098Z,78.60
2023-03-15T10:24:20.730Z,78.38
2023-03-15T10:26:51.411Z,78.34
2023-03-15T10:29:22.246Z,78.26
2023-03-15T10:31:52.637Z,78.22
2023-03-15T10:34:22.024Z,78.14
2023-03-15T10:36:55.166Z,78.02
2023-03-15T10:39:23.723Z,78.05
2023-03-15T10:41:52.353Z,78.20
2023-03-15T10:44:22.410Z,78.07
2023-03-15T10:47:21.595Z,77.68
2023-03-15T10:49:51.525Z,77.80
2023-03-15T10:52:35.657Z,77.72
2023-03-15T10:55:06.997Z,77.52
2023-03-15T10:57:40.622Z,77.51
2023-03-15T11:00:26.927Z,77.37
2023-03-15T11:03:03.405Z,77.40
2023-03-15T11:05:33.366Z,77.31
2023-03-15T11:08:02.580Z,77.11
2023-03-15T11:10:35.282Z,77.11
2023-03-15T11:13:21.816Z,77.01
2023-03-15T11:16:01.455Z,76.85
2023-03-15T11:18:33.664Z,76.63
2023-03-15T11:21:05.864Z,76.58
2023-03-15T11:23:37.802Z,76.60
2023-03-15T11:26:06.278Z,76.46
2023-03-15T11:28:37.553Z,76.75
2023-03-15T11:31:07.210Z,76.31
2023-03-15T11:33:44.934Z,76.19
2023-03-15T11:36:17.868Z,76.02
2023-03-15T11:38:47.556Z,75.93
2023-03-15T11:41:28.804Z,75.90
2023-03-15T11:44:03.720Z,75.76
2023-03-15T11:46:35.000Z,75.72
2023-03-15T11:49:10.398Z,75.42
2023-03-15T11:51:38.269Z,75.11
2023-03-15T11:54:12.550Z,75.26
2023-03-15T11:56:50.138Z,75.12
2023-03-15T11:59:19.786Z,75.03
2023-03-15T12:01:50.568Z,74.77
2023-03-15T12:04:39.556Z,74.73
2023-03-15T12:07:28.818Z,74.80
2023-03-15T12:09:59.499Z,74.71
2023-03-15T12:12:41.496Z,74.25
2023-03-15T12:15:44.224Z,74.12
2023-03-15T12:18:17.984Z,74.03
2023-03-15T12:20:58.943Z,74.21
2023-03-15T12:23:39.132Z,73.52
2023-03-15T12:26:15.045Z,73.69
2023-03-15T12:28:52.588Z,73.39
2023-03-15T12:31:21.608Z,73.37
2023-03-15T12:33:55.090Z,73.31
2023-03-15T12:36:36.285Z,73.17
2023-03-15T12:39:22.424Z,72.86
2023-03-15T12:41:53.007Z,72.82
2023-03-15T12:44:39.347Z,73.03
2023-03-15T12:47:07.770Z,72.76
2023-03-15T12:49:38.731Z,72.29
2023-03-15T12:52:14.552Z,72.18
2023-03-15T12:54:46.140Z,72.48
2023-03-15T12:57:23.473Z,72.06
2023-03-15T12:59:55.884Z,72.12
2023-03-15T13:02:42.733Z,71.84
2023-03-15T13:05:20.746Z,71.97
2023-03-15T13:08:04.959Z,71.70
2023-03-15T13:11:01.380Z,71.67
2023-03-15T13:13:51.678Z,71.79
2023-03-15T13:16:31.035Z,71.62
2023-03-15T13:19:14.394Z,71.51
2023-03-15T13:21:57.891Z,71.55
2023-03-15T13:24:34.632Z,71.57
2023-03-15T13:27:08.775Z,71.17
2023-03-15T13:29:38.142Z,71.13
2023-03-15T13:32:14.461Z,70.88
2023-03-15T13:34:45.150Z,70.64
2023-03-15T13:37:15.609Z,70.95
2023-03-15T13:39:55.909Z,70.82
2023-03-15T13:42:25.431Z,70.47
2023-03-15T13:45:12.525Z,70.31
2023-03-15T13:47:41.617Z,70.46
2023-03-15T13:50:13.866Z,70.38
2023-03-15T13:52:42.746Z,70.47
2023-03-15T13:55:13.975Z,69.84
2023-03-15T13:57:42.322Z,70.19
2023-03-15T14:00:14.684Z,69.64
2023-03-15T14:02:49.610Z,69.94
2023-03-15T14:05:27.070Z,69.92
2023-03-15T14:07:59.488Z,69.93
2023-03-15T14:10:31.411Z,69.58
2023-03-15T14:13:16.627Z,69.42
2023-03-15T14:15:48.270Z,69.27
2023-03-15T14:18:20.477Z,69.07
2023-03-15T14:20:54.492Z,69.13
2023-03-15T14:23:25.542Z,69.05
2023-03-15T14:25:54.937Z,68.95
2023-03-15T14:28:24.447Z,68.56
2023-03-15T14:30:55.351Z,68.45
2023-03-15T14:33:31.348Z,68.68
2023-03-15T14:36:01.695Z,68.48
2023-03-15T14:38:35.364Z,68.32
2023-03-15T14:41:20.407Z,67.92
2023-03-15T14:43:48.179Z,67.94
2023-03-15T14:46:17.427Z,67.73
2023-03-15T14:48:45.776Z,67.85
2023-03-15T14:51:16.856Z,67.49
2023-03-15T14:53:45.480Z,67.71
2023-03-15T14:56:14.149Z,67.24
2023-03-15T14:58:42.516Z,67.41
2023-03-15T15:01:14.601Z,67.11
2023-03-15T15:03:49.367Z,66.90
2023-03-15T15:06:17.539Z,66.70
2023-03-15T15:08:47.365Z,66.80
2023-03-15T15:11:16.022Z,66.79
2023-03-15T15:13:43.978Z,66.25
2023-03-15T15:16:11.751Z,66.11
2023-03-15T15:18:39.689Z,66.18
2023-03-15T15:21:14.580Z,65.66
2023-03-15T15:23:56.928Z,65.79
2023-03-15T15:26:27.639Z,65.65
2023-03-15T15:28:56.619Z,64.73
2023-03-15T15:31:26.927Z,65.20
2023-03-15T15:33:56.510Z,64.85
2023-03-15T15:36:28.099Z,65.03
2023-03-15T15:38:56.954Z,64.31
2023-03-15T15:41:26.884Z,64.54
2023-03-15T15:43:55.106Z,64.55
2023-03-15T15:46:23.936Z,64.82
2023-03-15T15:48:52.471Z,64.71
2023-03-15T15:51:26.744Z,63.91
2023-03-15T15:53:55.800Z,63.93
2023-03-15T15:56:30.075Z,63.87
2023-03-15T15:58:58.468Z,64.02
2023-03-15T16:01:26.318Z,63.76
2023-03-15T16:03:54.209Z,63.58
2023-03-15T16:06:23.209Z,63.47
2023-03-15T16:08:55.297Z,63.36
2023-03-15T16:11:23.270Z,63.52
2023-03-15T16:13:53.837Z,63.34
2023-03-15T16:16:22.596Z,63.35
2023-03-15T16:18:51.058Z,63.29
2023-03-15T16:21:23.030Z,63.34
2023-03-15T16:23:57.313Z,63.18
2023-03-15T16:26:25.137Z,63.20
2023-03-15T16:28:53.126Z,63.09
2023-03-15T16:31:22.888Z,63.04
2023-03-15T16:33:51.139Z,63.10
2023-03-15T16:36:20.836Z,63.01
2023-03-15T16:38:48.792Z,62.87
2023-03-15T16:41:18.532Z,62.76
2023-03-15T16:43:49.111Z,62.72
2023-03-15T16:46:17.517Z,62.67
2023-03-15T16:48:45.368Z,62.67
2023-03-15T16:51:15.493Z,62.32
2023-03-15T16:53:45.182Z,62.41
2023-03-15T16:56:15.439Z,62.23
2023-03-15T16:58:45.204Z,62.22
2023-03-15T17:01:13.017Z,62.28
2023-03-15T17:03:40.793Z,62.22
2023-03-15T17:06:20.081Z,62.32
2023-03-15T17:08:48.521Z,62.02
2023-03-15T17:11:16.650Z,62.01
2023-03-15T17:13:45.967Z,61.84
2023-03-15T17:16:15.373Z,61.86
2023-03-15T17:18:44.171Z,62.20
2023-03-15T17:21:14.361Z,61.72
2023-03-15T17:23:42.667Z,61.93
2023-03-15T17:26:13.456Z,61.94
2023-03-15T17:28:42.615Z,61.82
2023-03-15T17:31:25.406Z,61.82
2023-03-15T17:33:54.604Z,61.71
2023-03-15T17:36:24.662Z,61.80
2023-03-15T17:38:53.078Z,61.63
2023-03-15T17:41:22.872Z,61.77
2023-03-15T17:43:52.690Z,61.44
2023-03-15T17:46:28.192Z,61.57
2023-03-15T17:48:56.401Z,61.41
2023-03-15T17:51:25.903Z,61.42
2023-03-15T17:53:54.568Z,61.60
2023-03-15T17:56:23.583Z,61.50
2023-03-15T17:58:52.481Z,61.53
2023-03-15T18:01:24.199Z,61.26
2023-03-15T18:03:52.576Z,61.24
2023-03-15T18:06:22.262Z,61.06
2023-03-15T18:08:51.366Z,60.86
2023-03-15T18:11:25.523Z,60.88
2023-03-15T18:13:53.717Z,60.91
2023-03-15T18:16:23.172Z,61.02
2023-03-15T18:18:51.014Z,61.25
2023-03-15T18:21:20.643Z,61.01
2023-03-15T18:23:49.735Z,60.93
2023-03-15T18:26:18.040Z,61.19
2023-03-15T18:28:48.919Z,60.68
2023-03-15T18:31:19.231Z,60.73
2023-03-15T18:33:49.017Z,60.82
2023-03-15T18:36:16.833Z,61.09
2023-03-15T18:38:44.766Z,60.91
2023-03-15T18:41:18.856Z,60.84
2023-03-15T18:43:50.107Z,60.83
2023-03-15T18:46:19.571Z,60.44
2023-03-15T18:48:49.933Z,60.45
2023-03-15T18:51:18.737Z,60.33
2023-03-15T18:53:47.518Z,60.64
2023-03-15T18:56:20.355Z,60.32
2023-03-15T18:58:49.007Z,60.31
2023-03-15T19:01:16.966Z,60.53
2023-03-15T19:03:45.114Z,60.15
2023-03-15T19:06:14.329Z,60.20
2023-03-15T19:08:42.884Z,60.34
2023-03-15T19:11:11.578Z,60.37
2023-03-15T19:13:39.575Z,60.53
2023-03-15T19:16:07.935Z,59.83
2023-03-15T19:18:36.075Z,60.27
2023-03-15T19:21:03.863Z,60.08
2023-03-15T19:23:34.240Z,59.79
2023-03-15T19:26:02.110Z,59.96
2023-03-15T19:28:30.405Z,59.91
2023-03-15T19:30:58.924Z,59.75
2023-03-15T19:33:29.076Z,60.11
2023-03-15T19:35:57.190Z,59.82
2023-03-15T19:38:25.160Z,59.81
2023-03-15T19:40:56.748Z,59.60
2023-03-15T19:43:26.191Z,60.07
2023-03-15T19:45:54.026Z,60.16
2023-03-15T19:48:22.196Z,60.12
2023-03-15T19:50:49.937Z,59.75
2023-03-15T19:53:18.295Z,59.86
2023-03-15T19:55:46.132Z,60.06
2023-03-15T19:58:15.347Z,59.78
2023-03-15T20:00:43.200Z,59.94
2023-03-15T20:03:12.582Z,59.40
2023-03-15T20:05:40.542Z,59.66
2023-03-15T20:08:09.663Z,59.85
2023-03-15T20:10:37.536Z,59.34
2023-03-15T20:13:05.295Z,59.21
2023-03-15T20:15:34.501Z,59.61
2023-03-15T20:18:02.488Z,59.66
2023-03-15T20:20:31.139Z,59.42
2023-03-15T20:22:58.918Z,59.38
2023-03-15T20:25:26.683Z,59.41
2023-03-15T20:27:54.553Z,59.66
2023-03-15T20:30:22.851Z,59.26
2023-03-15T20:32:52.306Z,59.50
2023-03-15T20:35:20.369Z,59.18
2023-03-15T20:37:49.358Z,59.11
2023-03-15T20:40:17.349Z,59.33
2023-03-15T20:42:45.157Z,59.56
2023-03-15T20:45:14.067Z,59.06
2023-03-15T20:47:42.602Z,58.91
2023-03-15T20:50:14.185Z,58.87
2023-03-15T20:52:42.702Z,58.80
2023-03-15T20:55:11.514Z,59.03
2023-03-15T20:57:41.704Z,58.93
2023-03-15T21:00:12.532Z,59.10
2023-03-15T21:02:41.197Z,59.24
2023-03-15T21:05:12.971Z,59.04
2023-03-15T21:07:41.506Z,58.96
2023-03-15T21:10:10.916Z,59.02
2023-03-15T21:12:38.684Z,58.73
2023-03-15T21:15:07.902Z,58.62
2023-03-15T21:17:35.633Z,58.72
2023-03-15T21:20:07.259Z,58.60
2023-03-15T21:22:36.360Z,58.63
2023-03-15T21:25:05.670Z,58.89
2023-03-15T21:27:33.866Z,58.79
2023-03-15T21:30:01.695Z,58.59
2023-03-15T21:32:29.706Z,58.67
2023-03-15T21:34:58.573Z,58.89
2023-03-15T21:37:26.339Z,58.73
2023-03-15T21:39:55.855Z,58.54
2023-03-15T21:42:23.836Z,58.61
2023-03-15T21:44:53.600Z,58.58
2023-03-15T21:47:21.698Z,58.49
2023-03-15T21:49:49.567Z,58.46
2023-03-15T21:52:17.658Z,58.48
2023-03-15T21:54:45.837Z,58.66
2023-03-15T21:57:15.147Z,58.57
2023-03-15T21:59:42.908Z,58.44
2023-03-15T22:02:14.291Z,58.42
2023-03-15T22:04:42.725Z,58.55
2023-03-15T22:07:11.784Z,58.47
2023-03-15T22:09:41.380Z,58.47
2023-03-15T22:12:09.922Z,58.52
2023-03-15T22:14:40.004Z,58.55
2023-03-15T22:17:07.920Z,58.47
2023-03-15T22:19:35.926Z,58.25
2023-03-15T22:22:03.684Z,58.36
2023-03-15T22:24:34.020Z,58.40
2023-03-15T22:27:02.269Z,58.04
2023-03-15T22:29:30.283Z,58.41
2023-03-15T22:31:59.603Z,58.10
2023-03-15T22:34:27.450Z,58.46
2023-03-15T22:36:55.287Z,58.25
2023-03-15T22:39:23.219Z,58.22
2023-03-15T22:41:54.034Z,58.27
2023-03-15T22:44:22.463Z,58.46
2023-03-15T22:46:50.563Z,58.36
2023-03-15T22:49:19.837Z,58.20
2023-03-15T22:51:47.676Z,58.07
2023-03-15T22:54:15.712Z,58.21
2023-03-15T22:56:44.022Z,58.21
2023-03-15T22:59:12.023Z,58.06
2023-03-15T23:01:40.147Z,58.28
2023-03-15T23:04:08.032Z,58.19
2023-03-15T23:06:37.218Z,58.16
2023-03-15T23:09:06.655Z,57.96
2023-03-15T23:11:34.641Z,58.45
2023-03-15T23:14:02.416Z,58.39
2023-03-15T23:16:30.435Z,58.31
2023-03-15T23:18:58.587Z,58.06
2023-03-15T23:21:26.705Z,58.11
2023-03-15T23:23:55.909Z,58.14
2023-03-15T23:26:25.315Z,57.86
2023-03-15T23:28:53.510Z,58.04
2023-03-15T23:31:21.546Z,58.15
2023-03-15T23:33:49.362Z,57.90
2023-03-15T23:36:17.228Z,58.10
2023-03-15T23:38:45.099Z,58.05
2023-03-15T23:41:14.245Z,58.24
2023-03-15T23:43:42.017Z,57.97
2023-03-15T23:46:10.021Z,57.77
2023-03-15T23:48:37.936Z,57.97
2023-03-15T23:51:05.959Z,57.75
2023-03-15T23:53:33.767Z,57.78
2023-03-15T23:56:01.589Z,58.09
2023-03-15T23:58:30.881Z,57.70
